Time;durP1;ratioP1;P1;durP2;ratioP2;P2;SDS_P1;SDS_P2;PMS_P1;PMS_P2;Temp;Humidity;BMP_temperature;BMP_pressure;BME280_temperature;BME280_humidity;BME280_pressure;Samples;Min_cycle;Max_cycle;Signal;HPM_P1;HPM_P2
2024/03/14 00:00:49;;;;;;;1.80;1.67;;;;;;;;;;6315070;28;20027;-78
2024/03/14 00:03:50;;;;;;;1.73;1.63;;;;;;;;;;6317261;28;20464;-77
2024/03/14 00:06:50;;;;;;;2.00;1.80;;;;;;;;;;6292103;28;20032;-78
2024/03/14 00:09:51;;;;;;;2.13;1.63;;;;;;;;;;6318559;28;20091;-78
2024/03/14 00:12:51;;;;;;;2.47;2.20;;;;;;;;;;6314428;28;20023;-78
2024/03/14 00:15:51;;;;;;;1.90;1.43;;;;;;;;;;6312195;28;20457;-79
2024/03/14 00:18:51;;;;;;;2.77;1.33;;;;;;;;;;6318907;28;20439;-78
2024/03/14 00:21:52;;;;;;;1.97;1.50;;;;;;;;;;6310184;28;20039;-78
2024/03/14 00:24:52;;;;;;;1.80;1.50;;;;;;;;;;6311291;28;20024;-78
2024/03/14 00:27:52;;;;;;;1.87;1.37;;;;;;;;;;6313115;28;20073;-78
2024/03/14 00:30:52;;;;;;;2.23;1.40;;;;;;;;;;6318640;28;20031;-78
2024/03/14 00:33:53;;;;;;;1.93;1.53;;;;;;;;;;6315721;28;20109;-78
2024/03/14 00:36:53;;;;;;;2.00;1.50;;;;;;;;;;6323739;28;20052;-78
2024/03/14 00:39:53;;;;;;;2.20;1.50;;;;;;;;;;6323595;28;20064;-78
2024/03/14 00:42:55;;;;;;;1.87;1.60;;;;;;;;;;6324846;28;20059;-78
2024/03/14 00:45:56;;;;;;;2.13;1.67;;;;;;;;;;6323933;28;20487;-78
2024/03/14 00:48:57;;;;;;;1.58;1.40;;;;;;;;;;6322144;28;20757;-78
2024/03/14 00:51:57;;;;;;;1.67;1.23;;;;;;;;;;6319928;28;20024;-78
2024/03/14 00:54:58;;;;;;;2.07;1.43;;;;;;;;;;6323776;28;20016;-78
2024/03/14 00:58:00;;;;;;;2.22;1.52;;;;;;;;;;6324102;28;20031;-78
2024/03/14 01:01:01;;;;;;;2.15;1.55;;;;;;;;;;6323992;28;20059;-78
2024/03/14 01:04:03;;;;;;;1.63;1.17;;;;;;;;;;6322781;28;20024;-79
2024/03/14 01:07:04;;;;;;;1.40;1.20;;;;;;;;;;6300035;28;20028;-79
2024/03/14 01:10:05;;;;;;;1.60;1.07;;;;;;;;;;6305848;28;20035;-78
2024/03/14 01:13:07;;;;;;;1.55;1.10;;;;;;;;;;6322540;28;20027;-79
2024/03/14 01:16:08;;;;;;;;;;;;;;;;;;6323255;28;20055;-79
2024/03/14 01:19:08;;;;;;;2.40;1.00;;;;;;;;;;6326320;28;19904;-77
2024/03/14 01:22:08;;;;;;;0.90;0.80;;;;;;;;;;6321790;28;20081;-77
2024/03/14 01:25:09;;;;;;;1.10;0.97;;;;;;;;;;6325205;28;20055;-76
2024/03/14 01:28:10;;;;;;;1.20;1.10;;;;;;;;;;6324444;28;20035;-77
2024/03/14 01:31:11;;;;;;;1.38;0.90;;;;;;;;;;6325524;28;20016;-77
2024/03/14 01:34:12;;;;;;;1.13;0.88;;;;;;;;;;6326248;28;20055;-77
2024/03/14 01:37:12;;;;;;;1.20;1.10;;;;;;;;;;6303913;28;20032;-76
2024/03/14 01:40:13;;;;;;;0.93;0.83;;;;;;;;;;6324315;28;20101;-76
2024/03/14 01:43:13;;;;;;;1.37;1.17;;;;;;;;;;6309213;28;20028;-77
2024/03/14 01:46:13;;;;;;;1.17;0.90;;;;;;;;;;6321228;28;20099;-76
2024/03/14 01:49:14;;;;;;;0.87;0.87;;;;;;;;;;6325010;28;20028;-76
2024/03/14 01:52:14;;;;;;;1.43;1.10;;;;;;;;;;6321472;28;20099;-76
2024/03/14 01:55:15;;;;;;;1.00;0.90;;;;;;;;;;6325255;28;20453;-76
2024/03/14 01:58:17;;;;;;;0.90;0.82;;;;;;;;;;6323806;28;20028;-76
2024/03/14 02:01:18;;;;;;;1.52;1.05;;;;;;;;;;6324510;28;20457;-77
2024/03/14 02:04:19;;;;;;;1.05;0.95;;;;;;;;;;6315205;28;20373;-76
2024/03/14 02:07:19;;;;;;;;;;;;;;;;;;6322907;28;20043;-76
2024/03/14 02:10:24;;;;;;;1.95;0.80;;;;;;;;;;6324309;28;20352;-76
2024/03/14 02:13:24;;;;;;;1.15;0.90;;;;;;;;;;6324794;28;20021;-77
2024/03/14 02:16:24;;;;;;;1.00;0.90;;;;;;;;;;6324006;28;20469;-77
2024/03/14 02:19:25;;;;;;;0.87;0.83;;;;;;;;;;6324699;28;20376;-77
2024/03/14 02:22:27;;;;;;;1.60;1.10;;;;;;;;;;6304607;28;20012;-77
2024/03/14 02:25:27;;;;;;;1.20;0.93;;;;;;;;;;6322740;28;20060;-77
2024/03/14 02:28:29;;;;;;;1.10;0.90;;;;;;;;;;6321976;28;20028;-77
2024/03/14 02:31:29;;;;;;;0.88;0.88;;;;;;;;;;6323242;28;20132;-76
2024/03/14 02:34:30;;;;;;;0.93;0.80;;;;;;;;;;6304942;28;20024;-77
2024/03/14 02:37:31;;;;;;;0.93;0.83;;;;;;;;;;6322598;28;20154;-76
2024/03/14 02:40:31;;;;;;;1.15;0.75;;;;;;;;;;6324938;28;20416;-76
2024/03/14 02:43:31;;;;;;;0.60;0.60;;;;;;;;;;6323975;28;20062;-76
2024/03/14 02:46:31;;;;;;;1.37;0.97;;;;;;;;;;6323767;28;20094;-77
2024/03/14 02:49:32;;;;;;;0.90;0.77;;;;;;;;;;6323071;28;20028;-77
2024/03/14 02:52:32;;;;;;;0.90;0.77;;;;;;;;;;6321918;28;20020;-77
2024/03/14 02:55:32;;;;;;;1.30;0.87;;;;;;;;;;6323666;28;20105;-77
2024/03/14 02:58:32;;;;;;;1.53;1.00;;;;;;;;;;6321258;28;20402;-77
2024/03/14 03:01:33;;;;;;;1.23;0.90;;;;;;;;;;6323683;28;20020;-77
2024/03/14 03:04:33;;;;;;;1.57;1.00;;;;;;;;;;6320261;28;20069;-78
2024/03/14 03:07:34;;;;;;;1.00;0.90;;;;;;;;;;6316022;28;20032;-77
2024/03/14 03:10:34;;;;;;;1.27;1.17;;;;;;;;;;6322980;28;20051;-77
2024/03/14 03:13:34;;;;;;;1.20;0.87;;;;;;;;;;6323057;28;20365;-77
2024/03/14 03:16:37;;;;;;;1.00;0.83;;;;;;;;;;6304513;28;20059;-77
2024/03/14 03:19:37;;;;;;;1.25;1.10;;;;;;;;;;6304841;28;20020;-77
2024/03/14 03:25:57;;;;;;;0.80;0.70;;;;;;;;;;6322558;28;20056;-76
2024/03/14 03:28:58;;;;;;;1.17;0.90;;;;;;;;;;6322272;28;20047;-77
2024/03/14 03:31:58;;;;;;;0.83;0.80;;;;;;;;;;6322609;28;20028;-77
2024/03/14 03:34:58;;;;;;;2.03;1.00;;;;;;;;;;6320159;28;20354;-76
2024/03/14 03:38:00;;;;;;;1.50;0.87;;;;;;;;;;6322629;28;20032;-77
2024/03/14 03:41:01;;;;;;;;;;;;;;;;;;6320482;28;20043;-77
2024/03/14 03:44:01;;;;;;;0.73;0.70;;;;;;;;;;6322428;28;19915;-77
2024/03/14 03:47:01;;;;;;;1.37;0.90;;;;;;;;;;6323367;28;20254;-77
2024/03/14 03:50:02;;;;;;;0.90;0.87;;;;;;;;;;6321304;28;20016;-76
2024/03/14 03:53:02;;;;;;;1.43;1.03;;;;;;;;;;6321985;28;20937;-77
2024/03/14 03:56:02;;;;;;;1.20;1.03;;;;;;;;;;6320484;28;20066;-76
2024/03/14 03:59:07;;;;;;;1.60;1.30;;;;;;;;;;6303322;28;20480;-77
2024/03/14 04:02:09;;;;;;;1.10;1.00;;;;;;;;;;6322412;28;20103;-76
2024/03/14 04:05:13;;;;;;;1.30;1.20;;;;;;;;;;6320021;28;20024;-76
2024/03/14 04:08:16;;;;;;;1.75;1.33;;;;;;;;;;6320415;28;20032;-76
2024/03/14 04:11:18;;;;;;;1.50;1.30;;;;;;;;;;6321663;28;20019;-77
2024/03/14 04:14:18;;;;;;;;;;;;;;;;;;6323192;28;20051;-76
2024/03/14 04:17:18;;;;;;;1.30;1.15;;;;;;;;;;6322095;28;19908;-76
2024/03/14 04:20:21;;;;;;;1.45;1.10;;;;;;;;;;6303037;28;20441;-77
2024/03/14 04:23:21;;;;;;;1.33;0.98;;;;;;;;;;6321378;28;20035;-76
2024/03/14 04:26:22;;;;;;;1.10;1.00;;;;;;;;;;6323909;28;20511;-76
2024/03/14 04:29:22;;;;;;;1.23;1.08;;;;;;;;;;6323108;28;20024;-76
2024/03/14 04:32:23;;;;;;;1.63;1.20;;;;;;;;;;6321618;28;20071;-77
2024/03/14 04:35:24;;;;;;;1.30;1.20;;;;;;;;;;6322805;28;20032;-76
2024/03/14 04:38:24;;;;;;;1.38;1.10;;;;;;;;;;6321462;28;20074;-76
2024/03/14 04:41:28;;;;;;;1.60;1.40;;;;;;;;;;6322557;28;20028;-76
2024/03/14 04:44:28;;;;;;;2.22;1.38;;;;;;;;;;6304208;28;20020;-77
2024/03/14 04:47:29;;;;;;;2.00;1.23;;;;;;;;;;6320969;28;20369;-76
2024/03/14 04:50:29;;;;;;;2.10;1.17;;;;;;;;;;6303166;28;20068;-76
2024/03/14 04:53:30;;;;;;;1.60;1.17;;;;;;;;;;6316434;28;20435;-76
2024/03/14 04:56:30;;;;;;;1.20;1.10;;;;;;;;;;6321042;28;20035;-77
2024/03/14 04:59:30;;;;;;;1.70;1.23;;;;;;;;;;6322254;28;20185;-77
2024/03/14 05:02:32;;;;;;;1.67;1.50;;;;;;;;;;6319672;28;20028;-76
2024/03/14 05:05:32;;;;;;;;;;;;;;;;;;6300088;28;20025;-77
2024/03/14 05:08:32;;;;;;;3.33;1.13;;;;;;;;;;6307715;28;20031;-77
2024/03/14 05:11:33;;;;;;;1.33;1.23;;;;;;;;;;6320904;28;20457;-77
2024/03/14 05:14:33;;;;;;;1.70;1.57;;;;;;;;;;6322362;28;20012;-77
2024/03/14 05:17:34;;;;;;;1.63;1.52;;;;;;;;;;6325255;28;20473;-78
2024/03/14 05:20:35;;;;;;;1.42;1.30;;;;;;;;;;6305810;28;20032;-77
2024/03/14 05:23:36;;;;;;;2.13;1.50;;;;;;;;;;6326514;28;20028;-77
2024/03/14 05:26:36;;;;;;;1.60;1.40;;;;;;;;;;6323663;28;20471;-77
2024/03/14 05:29:37;;;;;;;2.27;1.70;;;;;;;;;;6326155;28;20036;-77
2024/03/14 05:32:37;;;;;;;1.67;1.57;;;;;;;;;;6306992;28;20108;-77
2024/03/14 05:35:37;;;;;;;3.47;1.90;;;;;;;;;;6325262;28;20422;-77
2024/03/14 05:38:38;;;;;;;2.90;2.10;;;;;;;;;;6313468;28;20082;-77
2024/03/14 05:41:38;;;;;;;2.00;1.80;;;;;;;;;;6319461;28;20482;-77
2024/03/14 05:44:40;;;;;;;2.10;1.80;;;;;;;;;;6317802;28;20024;-76
2024/03/14 05:47:40;;;;;;;2.15;1.85;;;;;;;;;;6323350;28;20028;-77
2024/03/14 05:50:45;;;;;;;2.03;1.70;;;;;;;;;;6320494;28;20054;-77
2024/03/14 05:53:45;;;;;;;2.17;1.83;;;;;;;;;;6303091;28;20154;-77
2024/03/14 05:56:45;;;;;;;1.83;1.60;;;;;;;;;;6323631;28;20016;-77
2024/03/14 05:59:46;;;;;;;2.53;1.93;;;;;;;;;;6325196;28;20077;-78
2024/03/14 06:02:46;;;;;;;2.20;2.00;;;;;;;;;;6323453;28;20020;-77
2024/03/14 06:05:49;;;;;;;2.20;1.77;;;;;;;;;;6323794;28;20012;-78
2024/03/14 06:08:50;;;;;;;2.15;1.80;;;;;;;;;;6323315;28;20039;-77
2024/03/14 06:11:50;;;;;;;2.13;1.60;;;;;;;;;;6296976;28;20032;-79
2024/03/14 06:14:51;;;;;;;2.07;1.87;;;;;;;;;;6319246;28;20102;-77
2024/03/14 06:17:51;;;;;;;2.10;1.90;;;;;;;;;;6325439;28;20032;-78
2024/03/14 06:20:54;;;;;;;2.17;1.73;;;;;;;;;;6321406;28;20028;-78
2024/03/14 06:23:55;;;;;;;2.92;2.00;;;;;;;;;;6323853;28;20035;-77
2024/03/14 06:26:55;;;;;;;2.42;1.70;;;;;;;;;;6319802;28;20131;-77
2024/03/14 06:29:57;;;;;;;2.70;1.80;;;;;;;;;;6314159;28;20028;-78
2024/03/14 06:32:57;;;;;;;2.15;1.88;;;;;;;;;;6319895;28;20020;-79
2024/03/14 06:35:57;;;;;;;2.07;1.77;;;;;;;;;;6317441;28;20036;-77
2024/03/14 06:38:58;;;;;;;2.27;1.97;;;;;;;;;;6319131;28;20072;-78
2024/03/14 06:41:58;;;;;;;2.40;1.87;;;;;;;;;;6317742;28;20535;-78
2024/03/14 06:45:02;;;;;;;2.23;1.97;;;;;;;;;;6298019;28;20024;-77
2024/03/14 06:48:03;;;;;;;2.25;1.85;;;;;;;;;;6315759;28;20032;-79
2024/03/14 06:51:04;;;;;;;2.78;2.50;;;;;;;;;;6314785;28;20020;-80
2024/03/14 06:54:04;;;;;;;3.10;2.27;;;;;;;;;;6320481;28;20488;-79
2024/03/14 06:57:09;;;;;;;2.67;2.43;;;;;;;;;;6317412;28;20436;-79
2024/03/14 07:00:13;;;;;;;3.17;2.60;;;;;;;;;;6319380;28;20506;-77
2024/03/14 07:03:13;;;;;;;3.33;2.20;;;;;;;;;;6313743;28;20041;-77
2024/03/14 07:06:14;;;;;;;3.73;2.83;;;;;;;;;;6301049;28;20043;-78
2024/03/14 07:09:17;;;;;;;2.25;2.05;;;;;;;;;;6311774;28;20088;-79
2024/03/14 07:12:17;;;;;;;2.13;1.92;;;;;;;;;;6313659;28;20024;-78
2024/03/14 07:15:18;;;;;;;2.23;2.03;;;;;;;;;;6315118;28;20484;-78
2024/03/14 07:18:18;;;;;;;3.30;2.33;;;;;;;;;;6317418;28;20028;-78
2024/03/14 07:21:18;;;;;;;5.47;2.80;;;;;;;;;;6292537;28;20492;-78
2024/03/14 07:24:21;;;;;;;3.43;2.47;;;;;;;;;;6320067;28;20381;-80
2024/03/14 07:27:21;;;;;;;2.75;2.25;;;;;;;;;;6295670;28;20048;-78
2024/03/14 07:30:24;;;;;;;2.73;2.40;;;;;;;;;;6323471;28;20028;-78
2024/03/14 07:33:25;;;;;;;2.42;2.22;;;;;;;;;;6305130;28;20103;-78
2024/03/14 07:36:26;;;;;;;2.70;2.38;;;;;;;;;;6320515;28;20023;-78
2024/03/14 07:39:29;;;;;;;2.60;2.30;;;;;;;;;;6300699;28;20119;-79
2024/03/14 07:42:31;;;;;;;3.08;2.38;;;;;;;;;;6321803;28;20027;-76
2024/03/14 07:45:31;;;;;;;;;;;;;;;;;;6323166;28;20107;-76
2024/03/14 07:48:31;;;;;;;2.63;1.77;;;;;;;;;;6292493;28;19919;-77
2024/03/14 07:51:31;;;;;;;3.17;2.27;;;;;;;;;;6318876;28;20046;-77
2024/03/14 07:54:32;;;;;;;3.57;2.03;;;;;;;;;;6317112;28;20368;-77
2024/03/14 07:57:35;;;;;;;2.27;1.90;;;;;;;;;;6321863;28;20090;-76
2024/03/14 08:00:36;;;;;;;1.90;1.73;;;;;;;;;;6321832;28;20058;-78
2024/03/14 08:03:42;;;;;;;2.13;1.92;;;;;;;;;;6302921;28;20477;-78
2024/03/14 08:06:45;;;;;;;2.33;1.92;;;;;;;;;;6317047;28;20123;-78
2024/03/14 08:09:46;;;;;;;2.30;1.73;;;;;;;;;;6310037;28;20578;-78
2024/03/14 08:12:46;;;;;;;2.03;1.83;;;;;;;;;;6320274;28;20068;-78
2024/03/14 08:15:52;;;;;;;1.70;1.60;;;;;;;;;;6321274;28;20513;-77
2024/03/14 08:18:53;;;;;;;1.65;1.48;;;;;;;;;;6303081;28;20028;-77
2024/03/14 08:21:53;;;;;;;1.40;1.30;;;;;;;;;;6321376;28;20031;-77
2024/03/14 08:24:53;;;;;;;1.10;1.00;;;;;;;;;;6322343;28;20430;-77
2024/03/14 08:27:54;;;;;;;1.33;1.13;;;;;;;;;;6319599;28;20370;-77
2024/03/14 08:30:54;;;;;;;1.30;1.20;;;;;;;;;;6322589;28;20153;-77
2024/03/14 08:33:58;;;;;;;1.77;1.63;;;;;;;;;;6323001;28;20464;-77
2024/03/14 08:36:59;;;;;;;1.65;1.55;;;;;;;;;;6302093;28;20031;-77
2024/03/14 08:40:00;;;;;;;1.43;1.30;;;;;;;;;;6318855;28;20077;-77
2024/03/14 08:43:00;;;;;;;1.10;1.00;;;;;;;;;;6322188;28;20043;-77
2024/03/14 08:46:01;;;;;;;1.63;1.20;;;;;;;;;;6321498;28;20483;-76
2024/03/14 08:49:02;;;;;;;1.23;1.13;;;;;;;;;;6301302;28;20027;-77
2024/03/14 08:52:04;;;;;;;1.67;1.02;;;;;;;;;;6324344;28;20055;-76
2024/03/14 08:55:23;;;;;;;1.58;1.15;;;;;;;;;;6304765;28;20052;-78
2024/03/14 08:58:25;;;;;;;1.83;1.45;;;;;;;;;;6323835;28;20069;-78
2024/03/14 09:01:25;;;;;;;2.20;1.80;;;;;;;;;;6323040;28;20026;-77
2024/03/14 09:04:26;;;;;;;2.00;1.60;;;;;;;;;;6321516;28;20032;-77
2024/03/14 09:07:26;;;;;;;1.63;1.53;;;;;;;;;;6321725;28;20508;-77
2024/03/14 09:10:26;;;;;;;2.50;1.37;;;;;;;;;;6297798;28;20020;-77
2024/03/14 09:13:30;;;;;;;1.83;1.40;;;;;;;;;;6305499;28;20021;-77
2024/03/14 09:16:32;;;;;;;1.35;1.25;;;;;;;;;;6316350;28;20499;-78
2024/03/14 09:19:33;;;;;;;1.67;1.30;;;;;;;;;;6317627;28;20428;-77
2024/03/14 09:22:33;;;;;;;2.17;1.73;;;;;;;;;;6301343;28;20012;-77
2024/03/14 09:25:33;;;;;;;2.00;1.47;;;;;;;;;;6326292;28;20481;-77
2024/03/14 09:28:34;;;;;;;1.73;1.33;;;;;;;;;;6318719;28;20020;-78
2024/03/14 09:31:34;;;;;;;1.70;1.17;;;;;;;;;;6325805;28;20536;-78
2024/03/14 09:34:37;;;;;;;1.35;1.10;;;;;;;;;;6306300;28;20044;-78
2024/03/14 09:37:37;;;;;;;1.10;0.95;;;;;;;;;;6319121;28;20028;-78
2024/03/14 09:40:38;;;;;;;1.77;1.30;;;;;;;;;;6325752;28;20449;-78
2024/03/14 09:43:38;;;;;;;1.63;1.00;;;;;;;;;;6325652;28;20055;-78
2024/03/14 09:46:43;;;;;;;0.90;0.80;;;;;;;;;;6324887;28;20043;-78
2024/03/14 09:49:46;;;;;;;2.35;1.20;;;;;;;;;;6323679;28;20055;-79
2024/03/14 09:52:48;;;;;;;0.82;0.80;;;;;;;;;;6309534;28;20025;-78
2024/03/14 09:55:48;;;;;;;2.60;1.00;;;;;;;;;;6324877;28;20081;-78
2024/03/14 09:58:48;;;;;;;1.03;0.97;;;;;;;;;;6323311;28;20028;-78
2024/03/14 10:01:49;;;;;;;1.37;1.10;;;;;;;;;;6321656;28;20073;-78
2024/03/14 10:04:49;;;;;;;1.70;1.07;;;;;;;;;;6307513;28;20477;-79
2024/03/14 10:07:50;;;;;;;1.05;0.95;;;;;;;;;;6313503;28;20111;-78
2024/03/14 10:10:50;;;;;;;4.05;3.25;;;;;;;;;;6308522;28;20109;-78
2024/03/14 10:13:50;;;;;;;2.97;2.37;;;;;;;;;;6295609;28;20066;-78
2024/03/14 10:16:51;;;;;;;2.27;1.50;;;;;;;;;;6299621;28;20127;-78
2024/03/14 10:19:51;;;;;;;1.20;1.07;;;;;;;;;;6308116;28;20040;-78
2024/03/14 10:22:51;;;;;;;1.33;1.13;;;;;;;;;;6294030;28;20028;-78
2024/03/14 10:25:53;;;;;;;1.03;0.93;;;;;;;;;;6321873;28;20052;-79
2024/03/14 10:28:53;;;;;;;1.20;1.10;;;;;;;;;;6305990;28;20073;-77
2024/03/14 10:31:54;;;;;;;1.47;0.90;;;;;;;;;;6309569;28;20464;-77
2024/03/14 10:34:54;;;;;;;1.00;0.90;;;;;;;;;;6322970;28;20496;-79
2024/03/14 10:37:56;;;;;;;1.07;0.97;;;;;;;;;;6322768;28;20384;-80
2024/03/14 10:40:59;;;;;;;1.15;1.00;;;;;;;;;;6317300;28;20278;-80
2024/03/14 10:44:01;;;;;;;1.73;1.08;;;;;;;;;;6317658;28;20111;-80
2024/03/14 10:47:02;;;;;;;1.10;1.00;;;;;;;;;;6317006;28;22130;-80
2024/03/14 10:50:09;;;;;;;1.67;1.10;;;;;;;;;;6301482;28;20485;-80
2024/03/14 10:53:11;;;;;;;1.80;1.30;;;;;;;;;;6280780;28;20098;-80
2024/03/14 10:56:15;;;;;;;1.20;1.05;;;;;;;;;;6322923;28;20156;-80
2024/03/14 10:59:16;;;;;;;1.58;1.20;;;;;;;;;;6321453;28;20145;-80
2024/03/14 11:02:16;;;;;;;1.17;1.08;;;;;;;;;;6308993;28;20036;-78
2024/03/14 11:05:22;;;;;;;1.02;0.82;;;;;;;;;;6288057;28;20027;-76
2024/03/14 11:08:25;;;;;;;1.42;1.10;;;;;;;;;;6323162;28;20043;-80
2024/03/14 11:11:27;;;;;;;1.00;0.90;;;;;;;;;;6317867;28;20026;-76
2024/03/14 11:14:27;;;;;;;;;;;;;;;;;;6322136;28;20039;-77
2024/03/14 11:17:29;;;;;;;1.10;0.73;;;;;;;;;;6322750;28;19904;-77
2024/03/14 11:20:32;;;;;;;0.80;0.70;;;;;;;;;;6309334;28;20119;-77
2024/03/14 11:23:34;;;;;;;0.70;0.70;;;;;;;;;;6312429;28;20039;-76
2024/03/14 11:26:35;;;;;;;1.10;0.82;;;;;;;;;;6316981;28;20051;-77
2024/03/14 11:29:35;;;;;;;;;;;;;;;;;;6320826;28;20109;-77
2024/03/14 11:32:46;;;;;;;0.80;0.80;;;;;;;;;;6322521;28;19916;-78
2024/03/14 11:35:47;;;;;;;0.77;0.77;;;;;;;;;;6312940;28;20024;-78
2024/03/14 11:38:47;;;;;;;1.92;0.80;;;;;;;;;;6296891;28;20266;-78
2024/03/14 11:41:49;;;;;;;0.77;0.77;;;;;;;;;;6303423;28;20051;-78
2024/03/14 11:44:49;;;;;;;;;;;;;;;;;;6323089;28;20524;-78
2024/03/14 11:47:50;;;;;;;0.83;0.70;;;;;;;;;;6322901;28;19908;-78
2024/03/14 11:50:54;;;;;;;0.95;0.85;;;;;;;;;;6300110;28;20043;-77
2024/03/14 11:53:59;;;;;;;1.35;1.05;;;;;;;;;;6301952;28;20405;-78
2024/03/14 11:57:00;;;;;;;1.95;0.85;;;;;;;;;;6296782;28;20428;-76
2024/03/14 12:00:08;;;;;;;1.00;0.90;;;;;;;;;;6297059;28;20028;-77
2024/03/14 12:03:11;;;;;;;0.93;0.77;;;;;;;;;;6299616;28;20378;-78
2024/03/14 12:06:17;;;;;;;1.25;0.95;;;;;;;;;;6315329;28;20464;-78
2024/03/14 12:09:25;;;;;;;2.25;1.13;;;;;;;;;;6320835;28;20128;-78
2024/03/14 12:12:25;;;;;;;1.73;1.20;;;;;;;;;;6315589;28;20148;-79
2024/03/14 12:15:25;;;;;;;1.27;1.05;;;;;;;;;;6315848;28;20498;-78
2024/03/14 12:18:27;;;;;;;0.93;0.70;;;;;;;;;;6322687;28;20452;-78
2024/03/14 12:21:28;;;;;;;1.27;0.70;;;;;;;;;;6319746;28;20473;-79
2024/03/14 12:24:28;;;;;;;0.57;0.52;;;;;;;;;;6302914;28;20039;-79
2024/03/14 12:27:30;;;;;;;0.90;0.60;;;;;;;;;;6325406;28;20500;-78
2024/03/14 12:30:33;;;;;;;1.80;1.52;;;;;;;;;;6325607;28;20035;-78
2024/03/14 12:33:34;;;;;;;1.23;1.13;;;;;;;;;;6312038;28;20024;-78
2024/03/14 12:36:35;;;;;;;0.80;0.80;;;;;;;;;;6319265;28;20024;-78
2024/03/14 12:39:36;;;;;;;0.63;0.60;;;;;;;;;;6308877;28;20396;-79
2024/03/14 12:42:36;;;;;;;2.13;0.90;;;;;;;;;;6324903;28;20028;-78
2024/03/14 12:45:36;;;;;;;1.63;0.70;;;;;;;;;;6327239;28;20024;-79
2024/03/14 12:48:37;;;;;;;0.60;0.60;;;;;;;;;;6326783;28;20031;-78
2024/03/14 12:51:37;;;;;;;0.80;0.80;;;;;;;;;;6323294;28;20074;-78
2024/03/14 12:54:40;;;;;;;0.67;0.67;;;;;;;;;;6325892;28;20028;-78
2024/03/14 12:57:43;;;;;;;1.20;0.98;;;;;;;;;;6326286;28;20020;-78
2024/03/14 13:00:45;;;;;;;1.00;0.73;;;;;;;;;;6325730;28;20028;-78
2024/03/14 13:03:45;;;;;;;0.75;0.73;;;;;;;;;;6326110;28;20468;-78
2024/03/14 13:06:45;;;;;;;0.75;0.75;;;;;;;;;;6324236;28;20140;-78
2024/03/14 13:10:09;;;;;;;0.45;0.45;;;;;;;;;;6303561;28;20044;-78
2024/03/14 13:13:11;;;;;;;0.60;0.50;;;;;;;;;;6322581;28;20031;-78
2024/03/14 13:16:15;;;;;;;0.45;0.45;;;;;;;;;;6325987;28;20486;-76
2024/03/14 13:19:15;;;;;;;0.80;0.73;;;;;;;;;;6307233;28;20024;-77
2024/03/14 13:22:15;;;;;;;0.77;0.77;;;;;;;;;;6323968;28;20065;-78
2024/03/14 13:25:16;;;;;;;0.63;0.60;;;;;;;;;;6326297;28;20048;-78
2024/03/14 13:28:18;;;;;;;1.05;0.70;;;;;;;;;;6322453;28;20099;-78
2024/03/14 13:31:20;;;;;;;0.95;0.90;;;;;;;;;;6322738;28;20400;-78
2024/03/14 13:34:21;;;;;;;1.77;0.85;;;;;;;;;;6312784;28;20016;-78
2024/03/14 13:37:21;;;;;;;1.15;0.73;;;;;;;;;;6322150;28;20050;-78
2024/03/14 13:40:22;;;;;;;0.50;0.50;;;;;;;;;;6325718;28;20035;-78
2024/03/14 13:43:22;;;;;;;0.50;0.50;;;;;;;;;;6326043;28;20366;-78
2024/03/14 13:46:25;;;;;;;0.50;0.50;;;;;;;;;;6326166;28;20036;-78
2024/03/14 13:49:34;;;;;;;0.60;0.55;;;;;;;;;;6322904;28;20071;-78
2024/03/14 13:52:35;;;;;;;0.43;0.43;;;;;;;;;;6317167;28;20035;-78
2024/03/14 13:55:36;;;;;;;0.80;0.80;;;;;;;;;;6325238;28;20028;-77
2024/03/14 13:58:38;;;;;;;0.90;0.70;;;;;;;;;;6326178;28;20032;-79
2024/03/14 14:01:39;;;;;;;1.52;0.90;;;;;;;;;;6326375;28;20590;-77
2024/03/14 14:04:39;;;;;;;0.60;0.60;;;;;;;;;;6325703;28;20028;-78
2024/03/14 14:07:40;;;;;;;0.60;0.60;;;;;;;;;;6305124;28;20086;-78
2024/03/14 14:10:40;;;;;;;0.70;0.70;;;;;;;;;;6325779;28;20308;-78
2024/03/14 14:13:40;;;;;;;0.70;0.68;;;;;;;;;;6326097;28;20495;-78
2024/03/14 14:16:42;;;;;;;1.80;1.63;;;;;;;;;;6326669;28;20020;-78
2024/03/14 14:19:43;;;;;;;2.13;1.77;;;;;;;;;;6326511;28;20048;-79
2024/03/14 14:22:45;;;;;;;1.60;1.30;;;;;;;;;;6311156;28;20027;-78
2024/03/14 14:25:45;;;;;;;1.25;0.85;;;;;;;;;;6315940;28;20052;-78
2024/03/14 14:28:45;;;;;;;1.07;0.50;;;;;;;;;;6312930;28;20582;-78
2024/03/14 14:31:46;;;;;;;0.43;0.43;;;;;;;;;;6322699;28;20520;-78
2024/03/14 14:34:46;;;;;;;0.50;0.50;;;;;;;;;;6321691;28;20032;-78
2024/03/14 14:37:46;;;;;;;0.47;0.47;;;;;;;;;;6322808;28;20262;-78
2024/03/14 14:40:48;;;;;;;0.80;0.40;;;;;;;;;;6321760;28;20035;-78
2024/03/14 14:43:48;;;;;;;0.65;0.57;;;;;;;;;;6317113;28;20026;-78
2024/03/14 14:46:50;;;;;;;0.50;0.50;;;;;;;;;;6323164;28;20028;-78
2024/03/14 14:49:51;;;;;;;0.30;0.30;;;;;;;;;;6323407;28;20364;-78
2024/03/14 14:52:52;;;;;;;0.50;0.50;;;;;;;;;;6323614;28;20461;-78
2024/03/14 14:55:53;;;;;;;0.57;0.55;;;;;;;;;;6324253;28;20103;-78
2024/03/14 14:58:53;;;;;;;0.40;0.40;;;;;;;;;;6303653;28;20473;-78
2024/03/14 15:01:53;;;;;;;0.40;0.40;;;;;;;;;;6305623;28;20468;-78
2024/03/14 15:04:54;;;;;;;0.70;0.40;;;;;;;;;;6321909;28;20440;-78
2024/03/14 15:07:54;;;;;;;0.80;0.50;;;;;;;;;;6322968;28;20129;-77
2024/03/14 15:10:57;;;;;;;0.52;0.43;;;;;;;;;;6324060;28;20134;-78
2024/03/14 15:13:58;;;;;;;0.57;0.50;;;;;;;;;;6323806;28;20038;-76
2024/03/14 15:16:58;;;;;;;0.43;0.40;;;;;;;;;;6310716;28;20028;-78
2024/03/14 15:19:59;;;;;;;1.87;0.50;;;;;;;;;;6321897;28;20069;-78
2024/03/14 15:22:59;;;;;;;0.52;0.50;;;;;;;;;;6319270;28;20028;-78
2024/03/14 15:26:04;;;;;;;0.40;0.40;;;;;;;;;;6322111;28;20117;-78
2024/03/14 15:29:04;;;;;;;0.77;0.50;;;;;;;;;;6313608;28;20699;-78
2024/03/14 15:32:05;;;;;;;0.40;0.30;;;;;;;;;;6316117;28;20086;-78
2024/03/14 15:35:06;;;;;;;0.70;0.57;;;;;;;;;;6297542;28;20040;-79
2024/03/14 15:38:09;;;;;;;2.10;0.43;;;;;;;;;;6279491;28;20041;-79
2024/03/14 15:41:11;;;;;;;0.45;0.40;;;;;;;;;;6298138;28;20036;-78
2024/03/14 15:44:12;;;;;;;0.40;0.40;;;;;;;;;;6297641;28;20096;-78
2024/03/14 15:47:13;;;;;;;0.50;0.50;;;;;;;;;;6297297;28;20047;-78
2024/03/14 15:50:16;;;;;;;0.60;0.60;;;;;;;;;;6305950;28;20060;-78
2024/03/14 15:53:16;;;;;;;0.50;0.50;;;;;;;;;;6321843;28;20077;-78
2024/03/14 15:56:17;;;;;;;16.33;0.77;;;;;;;;;;6319402;28;20020;-78
2024/03/14 15:59:17;;;;;;;1.35;0.70;;;;;;;;;;6321196;28;20024;-78
2024/03/14 16:02:18;;;;;;;0.60;0.60;;;;;;;;;;6320011;28;20019;-78
2024/03/14 16:05:18;;;;;;;0.40;0.40;;;;;;;;;;6302619;28;20027;-78
2024/03/14 16:08:19;;;;;;;0.43;0.40;;;;;;;;;;6321035;28;20028;-78
2024/03/14 16:11:19;;;;;;;1.08;0.70;;;;;;;;;;6322470;28;20039;-78
2024/03/14 16:14:20;;;;;;;1.10;0.93;;;;;;;;;;6322303;28;20027;-78
2024/03/14 16:17:20;;;;;;;1.10;0.70;;;;;;;;;;6313038;28;20453;-78
2024/03/14 16:20:31;;;;;;;1.17;0.60;;;;;;;;;;6296372;28;20021;-78
2024/03/14 16:23:31;;;;;;;0.60;0.60;;;;;;;;;;6314722;28;20183;-78
2024/03/14 16:26:31;;;;;;;0.40;0.40;;;;;;;;;;6320500;28;20055;-78
2024/03/14 16:29:32;;;;;;;0.43;0.43;;;;;;;;;;6298151;28;20058;-78
2024/03/14 16:32:32;;;;;;;1.60;0.50;;;;;;;;;;6311960;28;20036;-78
2024/03/14 16:35:33;;;;;;;1.03;0.83;;;;;;;;;;6321056;28;20066;-78
2024/03/14 16:38:33;;;;;;;0.68;0.60;;;;;;;;;;6321448;28;20112;-78
2024/03/14 16:41:34;;;;;;;1.30;0.50;;;;;;;;;;6318168;28;20445;-78
2024/03/14 16:44:38;;;;;;;0.70;0.70;;;;;;;;;;6322220;28;20020;-77
2024/03/14 16:47:41;;;;;;;0.55;0.52;;;;;;;;;;6321739;28;20105;-78
2024/03/14 16:50:41;;;;;;;0.70;0.65;;;;;;;;;;6320042;28;20024;-78
2024/03/14 16:53:41;;;;;;;0.60;0.60;;;;;;;;;;6303390;28;20062;-78
2024/03/14 16:56:41;;;;;;;0.60;0.60;;;;;;;;;;6318040;28;20035;-78
2024/03/14 16:59:42;;;;;;;0.90;0.60;;;;;;;;;;6302697;28;20392;-78
2024/03/14 17:02:43;;;;;;;0.60;0.60;;;;;;;;;;6303538;28;20115;-78
2024/03/14 17:05:43;;;;;;;0.60;0.60;;;;;;;;;;6315694;28;20028;-78
2024/03/14 17:08:44;;;;;;;0.90;0.80;;;;;;;;;;6296094;28;20166;-79
2024/03/14 17:11:44;;;;;;;0.63;0.60;;;;;;;;;;6299989;28;20036;-78
2024/03/14 17:14:44;;;;;;;0.77;0.57;;;;;;;;;;6316145;28;20043;-78
2024/03/14 17:17:45;;;;;;;0.80;0.73;;;;;;;;;;6301076;28;20090;-78
2024/03/14 17:20:45;;;;;;;1.25;1.15;;;;;;;;;;6315282;28;20078;-78
2024/03/14 17:23:46;;;;;;;1.90;1.63;;;;;;;;;;6320635;28;20024;-79
2024/03/14 17:26:48;;;;;;;2.13;1.67;;;;;;;;;;6319506;28;20060;-78
2024/03/14 17:29:49;;;;;;;3.15;2.53;;;;;;;;;;6323954;28;20036;-78
2024/03/14 17:32:51;;;;;;;;;;;;;;;;;;6299852;28;20028;-78
2024/03/14 17:35:51;;;;;;;1.48;1.17;;;;;;;;;;6317667;28;19912;-78
2024/03/14 17:38:51;;;;;;;1.40;1.17;;;;;;;;;;6319926;28;20088;-78
2024/03/14 17:41:55;;;;;;;1.10;1.00;;;;;;;;;;6301004;28;20046;-79
2024/03/14 17:44:56;;;;;;;1.40;1.30;;;;;;;;;;6301833;28;20292;-79
2024/03/14 17:47:56;;;;;;;1.40;0.97;;;;;;;;;;6299671;28;20028;-79
2024/03/14 17:50:57;;;;;;;1.83;1.00;;;;;;;;;;6309435;28;20029;-80
2024/03/14 17:53:58;;;;;;;1.70;1.20;;;;;;;;;;6302747;28;20340;-85
2024/03/14 17:56:58;;;;;;;1.58;1.10;;;;;;;;;;6320244;28;20066;-79
2024/03/14 17:59:59;;;;;;;0.90;0.90;;;;;;;;;;6319895;28;20023;-83
2024/03/14 18:03:00;;;;;;;1.48;1.05;;;;;;;;;;6316933;28;20369;-82
2024/03/14 18:06:00;;;;;;;3.15;2.53;;;;;;;;;;6318229;28;20039;-82
2024/03/14 18:09:06;;;;;;;3.03;2.13;;;;;;;;;;6317941;28;20020;-84
2024/03/14 18:12:06;;;;;;;3.63;2.55;;;;;;;;;;6317720;28;20032;-80